sensor_id;sensor_type;location;lat;lon;timestamp;pressure;altitude;pressure_sealevel;temperature;humidity
21760;BME280;11041;50.854;20.580;2023-06-22T00:02:25;98836.00;;;18.51;100.00
21760;BME280;11041;50.854;20.580;2023-06-22T00:04:52;98823.56;;;18.45;100.00
21760;BME280;11041;50.854;20.580;2023-06-22T00:07:18;98819.59;;;18.46;100.00
21760;BME280;11041;50.854;20.580;2023-06-22T00:09:45;98807.09;;;18.37;100.00
21760;BME280;11041;50.854;20.580;2023-06-22T00:12:11;98810.25;;;18.35;100.00
21760;BME280;11041;50.854;20.580;2023-06-22T00:14:38;98794.13;;;18.25;100.00
21760;BME280;11041;50.854;20.580;2023-06-22T00:17:04;98808.94;;;18.29;100.00
21760;BME280;11041;50.854;20.580;2023-06-22T00:19:31;98807.88;;;18.18;100.00
21760;BME280;11041;50.854;20.580;2023-06-22T00:21:58;98808.63;;;18.15;100.00
21760;BME280;11041;50.854;20.580;2023-06-22T00:24:26;98805.03;;;18.14;100.00
21760;BME280;11041;50.854;20.580;2023-06-22T00:26:52;98802.03;;;18.23;100.00
21760;BME280;11041;50.854;20.580;2023-06-22T00:29:19;98808.13;;;18.28;100.00
21760;BME280;11041;50.854;20.580;2023-06-22T00:31:46;98796.34;;;18.35;100.00
21760;BME280;11041;50.854;20.580;2023-06-22T00:34:12;98805.06;;;18.34;100.00
21760;BME280;11041;50.854;20.580;2023-06-22T00:36:39;98816.91;;;18.30;100.00
21760;BME280;11041;50.854;20.580;2023-06-22T00:39:07;98826.19;;;18.19;100.00
21760;BME280;11041;50.854;20.580;2023-06-22T00:41:34;98811.31;;;18.11;100.00
21760;BME280;11041;50.854;20.580;2023-06-22T00:44:01;98819.59;;;18.07;100.00
21760;BME280;11041;50.854;20.580;2023-06-22T00:46:27;98817.16;;;18.06;100.00
21760;BME280;11041;50.854;20.580;2023-06-22T00:48:54;98822.00;;;18.09;100.00
21760;BME280;11041;50.854;20.580;2023-06-22T00:51:23;98834.84;;;18.14;100.00
21760;BME280;11041;50.854;20.580;2023-06-22T00:53:51;98839.66;;;18.17;100.00
21760;BME280;11041;50.854;20.580;2023-06-22T00:56:19;98832.91;;;18.18;100.00
21760;BME280;11041;50.854;20.580;2023-06-22T00:58:51;98829.44;;;18.21;100.00
21760;BME280;11041;50.854;20.580;2023-06-22T01:01:21;98827.44;;;18.21;100.00
21760;BME280;11041;50.854;20.580;2023-06-22T01:03:50;98829.56;;;18.28;100.00
21760;BME280;11041;50.854;20.580;2023-06-22T01:06:35;98833.44;;;18.23;100.00
21760;BME280;11041;50.854;20.580;2023-06-22T01:09:20;98827.16;;;18.26;100.00
21760;BME280;11041;50.854;20.580;2023-06-22T01:11:57;98808.78;;;18.22;100.00
21760;BME280;11041;50.854;20.580;2023-06-22T01:14:45;98819.38;;;18.16;100.00
21760;BME280;11041;50.854;20.580;2023-06-22T01:17:16;98822.53;;;18.15;100.00
21760;BME280;11041;50.854;20.580;2023-06-22T01:19:49;98826.09;;;18.15;100.00
21760;BME280;11041;50.854;20.580;2023-06-22T01:22:26;98820.19;;;18.17;100.00
21760;BME280;11041;50.854;20.580;2023-06-22T01:25:21;98810.44;;;18.07;100.00
21760;BME280;11041;50.854;20.580;2023-06-22T01:28:05;98812.03;;;18.08;100.00
21760;BME280;11041;50.854;20.580;2023-06-22T01:30:45;98811.38;;;17.95;100.00
21760;BME280;11041;50.854;20.580;2023-06-22T01:33:14;98810.47;;;17.91;100.00
21760;BME280;11041;50.854;20.580;2023-06-22T01:35:43;98814.78;;;17.88;100.00
21760;BME280;11041;50.854;20.580;2023-06-22T01:38:11;98827.53;;;17.90;100.00
21760;BME280;11041;50.854;20.580;2023-06-22T01:40:37;98821.09;;;17.85;100.00
21760;BME280;11041;50.854;20.580;2023-06-22T01:43:05;98816.13;;;17.79;100.00
21760;BME280;11041;50.854;20.580;2023-06-22T01:45:32;98835.59;;;17.79;100.00
21760;BME280;11041;50.854;20.580;2023-06-22T01:48:00;98837.28;;;17.67;100.00
21760;BME280;11041;50.854;20.580;2023-06-22T01:50:27;98841.97;;;17.63;100.00
21760;BME280;11041;50.854;20.580;2023-06-22T01:52:55;98857.47;;;17.64;100.00
21760;BME280;11041;50.854;20.580;2023-06-22T01:55:21;98843.34;;;17.54;100.00
21760;BME280;11041;50.854;20.580;2023-06-22T01:57:48;98858.81;;;17.55;100.00
21760;BME280;11041;50.854;20.580;2023-06-22T02:00:21;98863.28;;;17.43;100.00
21760;BME280;11041;50.854;20.580;2023-06-22T02:03:02;98870.38;;;17.41;100.00
21760;BME280;11041;50.854;20.580;2023-06-22T02:05:39;98874.00;;;17.41;100.00
21760;BME280;11041;50.854;20.580;2023-06-22T02:08:26;98875.94;;;17.41;100.00
21760;BME280;11041;50.854;20.580;2023-06-22T02:10:56;98879.09;;;17.39;100.00
21760;BME280;11041;50.854;20.580;2023-06-22T02:13:25;98877.00;;;17.36;100.00
21760;BME280;11041;50.854;20.580;2023-06-22T02:15:53;98886.59;;;17.39;100.00
21760;BME280;11041;50.854;20.580;2023-06-22T02:18:20;98893.31;;;17.38;100.00
21760;BME280;11041;50.854;20.580;2023-06-22T02:20:47;98902.47;;;17.38;100.00
21760;BME280;11041;50.854;20.580;2023-06-22T02:23:13;98914.81;;;17.41;100.00
21760;BME280;11041;50.854;20.580;2023-06-22T02:25:40;98931.59;;;17.44;100.00
21760;BME280;11041;50.854;20.580;2023-06-22T02:28:10;98933.81;;;17.39;100.00
21760;BME280;11041;50.854;20.580;2023-06-22T02:30:37;98929.69;;;17.33;100.00
21760;BME280;11041;50.854;20.580;2023-06-22T02:33:04;98936.16;;;17.37;100.00
21760;BME280;11041;50.854;20.580;2023-06-22T02:35:31;98934.53;;;17.36;100.00
21760;BME280;11041;50.854;20.580;2023-06-22T02:38:02;98936.06;;;17.33;100.00
21760;BME280;11041;50.854;20.580;2023-06-22T02:40:29;98939.19;;;17.32;100.00
21760;BME280;11041;50.854;20.580;2023-06-22T02:42:57;98932.03;;;17.31;100.00
21760;BME280;11041;50.854;20.580;2023-06-22T02:45:28;98941.59;;;17.33;100.00
21760;BME280;11041;50.854;20.580;2023-06-22T02:47:55;98941.16;;;17.31;100.00
21760;BME280;11041;50.854;20.580;2023-06-22T02:50:23;98952.72;;;17.33;100.00
21760;BME280;11041;50.854;20.580;2023-06-22T02:52:49;98941.94;;;17.32;100.00
21760;BME280;11041;50.854;20.580;2023-06-22T02:55:16;98947.97;;;17.34;100.00
21760;BME280;11041;50.854;20.580;2023-06-22T02:57:42;98946.09;;;17.38;100.00
21760;BME280;11041;50.854;20.580;2023-06-22T03:00:14;98941.00;;;17.40;100.00
21760;BME280;11041;50.854;20.580;2023-06-22T03:02:48;98942.72;;;17.44;100.00
21760;BME280;11041;50.854;20.580;2023-06-22T03:05:16;98942.72;;;17.44;100.00
21760;BME280;11041;50.854;20.580;2023-06-22T03:07:45;98949.06;;;17.45;100.00
21760;BME280;11041;50.854;20.580;2023-06-22T03:10:13;98953.91;;;17.48;100.00
21760;BME280;11041;50.854;20.580;2023-06-22T03:12:41;98956.16;;;17.42;100.00
21760;BME280;11041;50.854;20.580;2023-06-22T03:15:11;98970.56;;;17.48;100.00
21760;BME280;11041;50.854;20.580;2023-06-22T03:17:40;98967.34;;;17.46;100.00
21760;BME280;11041;50.854;20.580;2023-06-22T03:20:09;98959.72;;;17.43;100.00
21760;BME280;11041;50.854;20.580;2023-06-22T03:22:39;98968.97;;;17.47;100.00
21760;BME280;11041;50.854;20.580;2023-06-22T03:25:08;98972.66;;;17.51;100.00
21760;BME280;11041;50.854;20.580;2023-06-22T03:27:42;98971.03;;;17.50;100.00
21760;BME280;11041;50.854;20.580;2023-06-22T03:30:11;98968.34;;;17.54;100.00
21760;BME280;11041;50.854;20.580;2023-06-22T03:32:38;98958.03;;;17.54;100.00
21760;BME280;11041;50.854;20.580;2023-06-22T03:35:05;98961.00;;;17.61;100.00
21760;BME280;11041;50.854;20.580;2023-06-22T03:37:32;98959.16;;;17.65;100.00
21760;BME280;11041;50.854;20.580;2023-06-22T03:39:59;98950.34;;;17.63;100.00
21760;BME280;11041;50.854;20.580;2023-06-22T03:42:26;98960.81;;;17.70;100.00
21760;BME280;11041;50.854;20.580;2023-06-22T03:44:53;98960.28;;;17.64;100.00
21760;BME280;11041;50.854;20.580;2023-06-22T03:47:19;98966.13;;;17.59;100.00
21760;BME280;11041;50.854;20.580;2023-06-22T03:49:46;98975.63;;;17.58;100.00
21760;BME280;11041;50.854;20.580;2023-06-22T03:52:12;98966.13;;;17.59;100.00
21760;BME280;11041;50.854;20.580;2023-06-22T03:54:39;98957.25;;;17.54;100.00
21760;BME280;11041;50.854;20.580;2023-06-22T03:57:05;98977.31;;;17.63;100.00
21760;BME280;11041;50.854;20.580;2023-06-22T03:59:32;98983.69;;;17.63;100.00
21760;BME280;11041;50.854;20.580;2023-06-22T04:01:59;98982.06;;;17.62;100.00
21760;BME280;11041;50.854;20.580;2023-06-22T04:04:25;98969.63;;;17.56;100.00
21760;BME280;11041;50.854;20.580;2023-06-22T04:06:52;98973.72;;;17.62;100.00
21760;BME280;11041;50.854;20.580;2023-06-22T04:09:18;98981.00;;;17.67;100.00
21760;BME280;11041;50.854;20.580;2023-06-22T04:11:45;98985.50;;;17.72;100.00
21760;BME280;11041;50.854;20.580;2023-06-22T04:14:12;98978.41;;;17.74;100.00
21760;BME280;11041;50.854;20.580;2023-06-22T04:16:38;99001.03;;;17.88;100.00
21760;BME280;11041;50.854;20.580;2023-06-22T04:19:04;98990.72;;;17.89;100.00
21760;BME280;11041;50.854;20.580;2023-06-22T04:21:31;98995.66;;;17.96;100.00
21760;BME280;11041;50.854;20.580;2023-06-22T04:23:57;99000.16;;;18.00;100.00
21760;BME280;11041;50.854;20.580;2023-06-22T04:26:24;98996.13;;;18.14;100.00
21760;BME280;11041;50.854;20.580;2023-06-22T04:28:50;99000.22;;;18.20;100.00
21760;BME280;11041;50.854;20.580;2023-06-22T04:31:22;98990.91;;;18.28;100.00
21760;BME280;11041;50.854;20.580;2023-06-22T04:34:00;99002.34;;;18.42;100.00
21760;BME280;11041;50.854;20.580;2023-06-22T04:36:39;99001.81;;;18.52;100.00
21760;BME280;11041;50.854;20.580;2023-06-22T04:39:09;99003.28;;;18.66;100.00
21760;BME280;11041;50.854;20.580;2023-06-22T04:41:40;98998.25;;;18.71;100.00
21760;BME280;11041;50.854;20.580;2023-06-22T04:44:19;98988.91;;;18.80;100.00
21760;BME280;11041;50.854;20.580;2023-06-22T04:47:01;98987.53;;;18.89;100.00
21760;BME280;11041;50.854;20.580;2023-06-22T04:49:30;98996.50;;;18.99;100.00
21760;BME280;11041;50.854;20.580;2023-06-22T04:52:05;98999.72;;;19.01;100.00
21760;BME280;11041;50.854;20.580;2023-06-22T04:54:33;98986.78;;;18.92;100.00
21760;BME280;11041;50.854;20.580;2023-06-22T04:57:02;98984.59;;;18.82;100.00
21760;BME280;11041;50.854;20.580;2023-06-22T04:59:31;98986.75;;;18.89;100.00
21760;BME280;11041;50.854;20.580;2023-06-22T05:02:00;98991.91;;;18.90;100.00
21760;BME280;11041;50.854;20.580;2023-06-22T05:04:29;98993.34;;;19.00;100.00
21760;BME280;11041;50.854;20.580;2023-06-22T05:07:00;99007.03;;;19.09;100.00
21760;BME280;11041;50.854;20.580;2023-06-22T05:09:26;99010.72;;;19.13;100.00
21760;BME280;11041;50.854;20.580;2023-06-22T05:11:53;99000.06;;;19.19;100.00
21760;BME280;11041;50.854;20.580;2023-06-22T05:14:20;99009.81;;;19.28;100.00
21760;BME280;11041;50.854;20.580;2023-06-22T05:16:48;99025.97;;;19.39;100.00
21760;BME280;11041;50.854;20.580;2023-06-22T05:19:16;99023.19;;;19.39;100.00
21760;BME280;11041;50.854;20.580;2023-06-22T05:21:44;99012.31;;;19.33;100.00
21760;BME280;11041;50.854;20.580;2023-06-22T05:24:10;99014.25;;;19.29;100.00
21760;BME280;11041;50.854;20.580;2023-06-22T05:26:37;99007.47;;;19.30;100.00
21760;BME280;11041;50.854;20.580;2023-06-22T05:29:04;98989.03;;;19.22;100.00
21760;BME280;11041;50.854;20.580;2023-06-22T05:31:31;99004.19;;;19.25;100.00
21760;BME280;11041;50.854;20.580;2023-06-22T05:33:57;99001.19;;;19.14;100.00
21760;BME280;11041;50.854;20.580;2023-06-22T05:36:24;99026.38;;;19.21;100.00
21760;BME280;11041;50.854;20.580;2023-06-22T05:38:53;99027.44;;;19.32;100.00
21760;BME280;11041;50.854;20.580;2023-06-22T05:41:19;99010.56;;;19.25;100.00
21760;BME280;11041;50.854;20.580;2023-06-22T05:43:46;99013.06;;;19.30;100.00
21760;BME280;11041;50.854;20.580;2023-06-22T05:46:13;99011.50;;;19.33;100.00
21760;BME280;11041;50.854;20.580;2023-06-22T05:48:40;99015.97;;;19.37;100.00
21760;BME280;11041;50.854;20.580;2023-06-22T05:51:06;99023.91;;;19.35;100.00
21760;BME280;11041;50.854;20.580;2023-06-22T05:53:33;99019.50;;;19.34;100.00
21760;BME280;11041;50.854;20.580;2023-06-22T05:55:59;99018.09;;;19.44;100.00
21760;BME280;11041;50.854;20.580;2023-06-22T05:58:26;99008.22;;;19.47;100.00
21760;BME280;11041;50.854;20.580;2023-06-22T06:00:52;99006.31;;;19.51;100.00
21760;BME280;11041;50.854;20.580;2023-06-22T06:03:19;99023.16;;;19.58;100.00
21760;BME280;11041;50.854;20.580;2023-06-22T06:05:45;99020.88;;;19.64;100.00
21760;BME280;11041;50.854;20.580;2023-06-22T06:08:12;99028.72;;;19.77;100.00
21760;BME280;11041;50.854;20.580;2023-06-22T06:10:39;99036.03;;;19.86;100.00
21760;BME280;11041;50.854;20.580;2023-06-22T06:13:05;99026.00;;;19.81;100.00
21760;BME280;11041;50.854;20.580;2023-06-22T06:15:34;99027.00;;;19.92;100.00
21760;BME280;11041;50.854;20.580;2023-06-22T06:18:01;99016.16;;;19.87;100.00
21760;BME280;11041;50.854;20.580;2023-06-22T06:20:31;99031.16;;;20.02;100.00
21760;BME280;11041;50.854;20.580;2023-06-22T06:22:57;99020.44;;;20.04;100.00
21760;BME280;11041;50.854;20.580;2023-06-22T06:25:24;99029.41;;;20.17;100.00
21760;BME280;11041;50.854;20.580;2023-06-22T06:27:52;99017.56;;;20.24;100.00
21760;BME280;11041;50.854;20.580;2023-06-22T06:30:21;99028.97;;;20.38;100.00
21760;BME280;11041;50.854;20.580;2023-06-22T06:32:49;99021.06;;;20.43;100.00
21760;BME280;11041;50.854;20.580;2023-06-22T06:35:16;99027.13;;;20.49;100.00
21760;BME280;11041;50.854;20.580;2023-06-22T06:37:45;99015.25;;;20.52;100.00
21760;BME280;11041;50.854;20.580;2023-06-22T06:40:14;99018.34;;;20.47;100.00
21760;BME280;11041;50.854;20.580;2023-06-22T06:42:44;99029.53;;;20.47;100.00
21760;BME280;11041;50.854;20.580;2023-06-22T06:45:15;99037.13;;;20.50;100.00
21760;BME280;11041;50.854;20.580;2023-06-22T06:47:42;99030.00;;;20.53;100.00
21760;BME280;11041;50.854;20.580;2023-06-22T06:50:10;99027.38;;;20.63;100.00
21760;BME280;11041;50.854;20.580;2023-06-22T06:52:37;99030.59;;;20.66;100.00
21760;BME280;11041;50.854;20.580;2023-06-22T06:55:05;99032.34;;;20.74;100.00
21760;BME280;11041;50.854;20.580;2023-06-22T06:57:38;99037.59;;;20.79;100.00
21760;BME280;11041;50.854;20.580;2023-06-22T07:00:09;99049.63;;;20.83;100.00
21760;BME280;11041;50.854;20.580;2023-06-22T07:02:44;99044.94;;;20.91;100.00
21760;BME280;11041;50.854;20.580;2023-06-22T07:05:12;99051.97;;;21.08;100.00
21760;BME280;11041;50.854;20.580;2023-06-22T07:07:40;99052.06;;;21.15;100.00
21760;BME280;11041;50.854;20.580;2023-06-22T07:10:09;99057.75;;;21.22;100.00
21760;BME280;11041;50.854;20.580;2023-06-22T07:12:37;99055.38;;;21.24;100.00
21760;BME280;11041;50.854;20.580;2023-06-22T07:15:09;99048.88;;;21.16;99.32
21760;BME280;11041;50.854;20.580;2023-06-22T07:17:38;99057.84;;;21.29;100.00
21760;BME280;11041;50.854;20.580;2023-06-22T07:20:08;99055.38;;;21.24;98.33
21760;BME280;11041;50.854;20.580;2023-06-22T07:22:44;99055.69;;;21.19;97.13
21760;BME280;11041;50.854;20.580;2023-06-22T07:25:13;99055.22;;;21.13;97.20
21760;BME280;11041;50.854;20.580;2023-06-22T07:27:56;99047.19;;;21.08;97.33
21760;BME280;11041;50.854;20.580;2023-06-22T07:30:24;99037.59;;;21.09;96.36
21760;BME280;11041;50.854;20.580;2023-06-22T07:32:50;99051.63;;;21.13;96.95
21760;BME280;11041;50.854;20.580;2023-06-22T07:35:17;99044.22;;;21.24;96.40
21760;BME280;11041;50.854;20.580;2023-06-22T07:37:43;99049.13;;;21.34;95.20
21760;BME280;11041;50.854;20.580;2023-06-22T07:40:10;99045.94;;;21.36;93.36
21760;BME280;11041;50.854;20.580;2023-06-22T07:42:37;99038.50;;;21.47;93.55
21760;BME280;11041;50.854;20.580;2023-06-22T07:45:05;99047.31;;;21.49;91.96
21760;BME280;11041;50.854;20.580;2023-06-22T07:47:34;99052.22;;;21.56;89.13
21760;BME280;11041;50.854;20.580;2023-06-22T07:50:05;99047.06;;;21.61;90.70
21760;BME280;11041;50.854;20.580;2023-06-22T07:52:32;99047.94;;;21.69;90.83
21760;BME280;11041;50.854;20.580;2023-06-22T07:54:59;99044.81;;;21.74;87.60
21760;BME280;11041;50.854;20.580;2023-06-22T07:57:26;99050.53;;;21.85;88.06
21760;BME280;11041;50.854;20.580;2023-06-22T08:00:04;99057.06;;;22.00;86.98
21760;BME280;11041;50.854;20.580;2023-06-22T08:02:43;99051.53;;;22.07;83.76
21760;BME280;11041;50.854;20.580;2023-06-22T08:05:11;99049.19;;;22.12;83.58
21760;BME280;11041;50.854;20.580;2023-06-22T08:07:38;99055.72;;;22.20;84.61
21760;BME280;11041;50.854;20.580;2023-06-22T08:10:06;99047.69;;;22.22;85.67
21760;BME280;11041;50.854;20.580;2023-06-22T08:12:33;99051.34;;;22.26;85.79
21760;BME280;11041;50.854;20.580;2023-06-22T08:14:59;99069.03;;;22.38;82.05
21760;BME280;11041;50.854;20.580;2023-06-22T08:17:26;99067.09;;;22.45;83.63
21760;BME280;11041;50.854;20.580;2023-06-22T08:19:53;99057.53;;;22.50;82.70
21760;BME280;11041;50.854;20.580;2023-06-22T08:22:19;99062.84;;;22.62;83.18
21760;BME280;11041;50.854;20.580;2023-06-22T08:24:46;99060.50;;;22.75;79.59
21760;BME280;11041;50.854;20.580;2023-06-22T08:27:12;99061.44;;;22.90;79.71
21760;BME280;11041;50.854;20.580;2023-06-22T08:29:40;99067.13;;;23.01;82.07
21760;BME280;11041;50.854;20.580;2023-06-22T08:32:12;99068.41;;;23.14;81.43
21760;BME280;11041;50.854;20.580;2023-06-22T08:34:38;99064.78;;;23.13;78.36
21760;BME280;11041;50.854;20.580;2023-06-22T08:37:09;99060.44;;;23.20;77.96
21760;BME280;11041;50.854;20.580;2023-06-22T08:39:35;99069.28;;;23.29;78.96
21760;BME280;11041;50.854;20.580;2023-06-22T08:42:02;99064.47;;;23.33;78.32
21760;BME280;11041;50.854;20.580;2023-06-22T08:44:29;99059.69;;;23.37;77.20
21760;BME280;11041;50.854;20.580;2023-06-22T08:46:55;99056.94;;;23.44;79.08
21760;BME280;11041;50.854;20.580;2023-06-22T08:49:22;99060.13;;;23.43;74.32
21760;BME280;11041;50.854;20.580;2023-06-22T08:51:49;99062.56;;;23.48;74.32
21760;BME280;11041;50.854;20.580;2023-06-22T08:54:16;99072.19;;;23.54;73.46
21760;BME280;11041;50.854;20.580;2023-06-22T08:56:42;99050.94;;;23.49;71.94
21760;BME280;11041;50.854;20.580;2023-06-22T08:59:10;99069.81;;;23.59;72.03
21760;BME280;11041;50.854;20.580;2023-06-22T09:01:37;99075.06;;;23.65;70.67
21760;BME280;11041;50.854;20.580;2023-06-22T09:04:04;99068.63;;;23.64;72.02
21760;BME280;11041;50.854;20.580;2023-06-22T09:06:32;99074.25;;;23.68;71.29
21760;BME280;11041;50.854;20.580;2023-06-22T09:08:59;99077.91;;;23.75;73.42
21760;BME280;11041;50.854;20.580;2023-06-22T09:11:26;99072.72;;;23.77;73.78
21760;BME280;11041;50.854;20.580;2023-06-22T09:13:53;99077.13;;;23.82;68.99
21760;BME280;11041;50.854;20.580;2023-06-22T09:16:20;99085.53;;;23.86;69.45
21760;BME280;11041;50.854;20.580;2023-06-22T09:18:49;99090.34;;;23.85;69.32
21760;BME280;11041;50.854;20.580;2023-06-22T09:21:16;99077.16;;;23.89;70.54
21760;BME280;11041;50.854;20.580;2023-06-22T09:23:43;99069.13;;;23.95;69.88
21760;BME280;11041;50.854;20.580;2023-06-22T09:26:10;99087.19;;;24.05;70.35
21760;BME280;11041;50.854;20.580;2023-06-22T09:28:36;99080.81;;;24.08;68.40
21760;BME280;11041;50.854;20.580;2023-06-22T09:31:03;99076.41;;;24.10;66.44
21760;BME280;11041;50.854;20.580;2023-06-22T09:33:29;99078.00;;;24.18;67.18
21760;BME280;11041;50.854;20.580;2023-06-22T09:35:55;99084.03;;;24.20;67.93
21760;BME280;11041;50.854;20.580;2023-06-22T09:38:23;99074.00;;;24.16;65.53
21760;BME280;11041;50.854;20.580;2023-06-22T09:40:49;99079.63;;;24.23;65.83
21760;BME280;11041;50.854;20.580;2023-06-22T09:43:17;99076.81;;;24.23;65.63
21760;BME280;11041;50.854;20.580;2023-06-22T09:45:43;99070.38;;;24.33;64.63
21760;BME280;11041;50.854;20.580;2023-06-22T09:48:10;99079.22;;;24.39;65.64
21760;BME280;11041;50.854;20.580;2023-06-22T09:50:36;99075.22;;;24.40;63.76
21760;BME280;11041;50.854;20.580;2023-06-22T09:53:03;99067.63;;;24.55;65.82
21760;BME280;11041;50.854;20.580;2023-06-22T09:55:30;99074.03;;;24.66;65.27
21760;BME280;11041;50.854;20.580;2023-06-22T09:57:56;99076.44;;;24.64;67.05
21760;BME280;11041;50.854;20.580;2023-06-22T10:00:29;99067.22;;;24.67;65.46
21760;BME280;11041;50.854;20.580;2023-06-22T10:02:58;99080.44;;;24.77;65.74
21760;BME280;11041;50.854;20.580;2023-06-22T10:05:27;99084.88;;;24.85;64.21
21760;BME280;11041;50.854;20.580;2023-06-22T10:08:03;99066.41;;;24.74;63.01
21760;BME280;11041;50.854;20.580;2023-06-22T10:10:36;99055.97;;;24.67;64.63
21760;BME280;11041;50.854;20.580;2023-06-22T10:13:14;99060.00;;;24.73;63.88
21760;BME280;11041;50.854;20.580;2023-06-22T10:15:42;99057.19;;;24.73;64.61
21760;BME280;11041;50.854;20.580;2023-06-22T10:18:09;99057.97;;;24.77;64.47
21760;BME280;11041;50.854;20.580;2023-06-22T10:20:35;99058.78;;;24.85;65.18
21760;BME280;11041;50.854;20.580;2023-06-22T10:23:02;99071.97;;;24.99;63.28
21760;BME280;11041;50.854;20.580;2023-06-22T10:25:28;99060.72;;;24.99;63.54
21760;BME280;11041;50.854;20.580;2023-06-22T10:27:55;99057.53;;;25.04;63.29
21760;BME280;11041;50.854;20.580;2023-06-22T10:30:21;99063.13;;;25.07;61.83
21760;BME280;11041;50.854;20.580;2023-06-22T10:32:47;99062.34;;;25.07;59.59
21760;BME280;11041;50.854;20.580;2023-06-22T10:35:14;99050.66;;;25.08;61.89
21760;BME280;11041;50.854;20.580;2023-06-22T10:37:46;99060.28;;;25.15;62.54
21760;BME280;11041;50.854;20.580;2023-06-22T10:40:14;99049.06;;;25.18;60.86
21760;BME280;11041;50.854;20.580;2023-06-22T10:42:41;99047.84;;;25.23;58.57
21760;BME280;11041;50.854;20.580;2023-06-22T10:45:09;99042.63;;;25.21;59.14
21760;BME280;11041;50.854;20.580;2023-06-22T10:47:36;99061.91;;;25.23;60.74
21760;BME280;11041;50.854;20.580;2023-06-22T10:50:03;99042.22;;;25.23;59.07
21760;BME280;11041;50.854;20.580;2023-06-22T10:52:30;99034.19;;;25.21;60.99
21760;BME280;11041;50.854;20.580;2023-06-22T10:54:57;99042.97;;;25.34;60.30
21760;BME280;11041;50.854;20.580;2023-06-22T10:57:24;99051.75;;;25.47;59.46
21760;BME280;11041;50.854;20.580;2023-06-22T10:59:50;99048.88;;;25.61;58.36
21760;BME280;11041;50.854;20.580;2023-06-22T11:02:16;99046.81;;;25.76;58.51
21760;BME280;11041;50.854;20.580;2023-06-22T11:04:43;99046.38;;;25.81;57.39
21760;BME280;11041;50.854;20.580;2023-06-22T11:07:09;99043.53;;;25.92;56.75
21760;BME280;11041;50.854;20.580;2023-06-22T11:09:36;99039.88;;;25.95;56.32
21760;BME280;11041;50.854;20.580;2023-06-22T11:12:05;99053.91;;;26.02;55.47
21760;BME280;11041;50.854;20.580;2023-06-22T11:14:32;99053.25;;;25.77;54.71
21760;BME280;11041;50.854;20.580;2023-06-22T11:17:00;99055.69;;;25.64;56.33
21760;BME280;11041;50.854;20.580;2023-06-22T11:19:26;99053.69;;;25.71;57.91
21760;BME280;11041;50.854;20.580;2023-06-22T11:21:53;99037.16;;;25.73;57.25
21760;BME280;11041;50.854;20.580;2023-06-22T11:24:19;99034.28;;;25.84;56.14
21760;BME280;11041;50.854;20.580;2023-06-22T11:26:46;99026.25;;;25.83;53.22
21760;BME280;11041;50.854;20.580;2023-06-22T11:29:12;99010.19;;;25.80;53.11
21760;BME280;11041;50.854;20.580;2023-06-22T11:31:39;99014.19;;;25.82;54.41
21760;BME280;11041;50.854;20.580;2023-06-22T11:34:05;99021.78;;;25.96;57.13
21760;BME280;11041;50.854;20.580;2023-06-22T11:36:31;99025.56;;;26.27;53.21
21760;BME280;11041;50.854;20.580;2023-06-22T11:38:59;99003.72;;;26.42;52.22
21760;BME280;11041;50.854;20.580;2023-06-22T11:41:26;99022.09;;;26.58;52.66
21760;BME280;11041;50.854;20.580;2023-06-22T11:43:52;99027.81;;;26.47;53.19
21760;BME280;11041;50.854;20.580;2023-06-22T11:46:19;99017.41;;;26.44;52.46
21760;BME280;11041;50.854;20.580;2023-06-22T11:48:45;99008.88;;;26.51;52.19
21760;BME280;11041;50.854;20.580;2023-06-22T11:51:12;98994.75;;;26.58;55.21
21760;BME280;11041;50.854;20.580;2023-06-22T11:53:38;99010.47;;;26.93;50.93
21760;BME280;11041;50.854;20.580;2023-06-22T11:56:04;99003.38;;;27.16;52.34
21760;BME280;11041;50.854;20.580;2023-06-22T11:58:34;98991.66;;;27.21;50.87
21760;BME280;11041;50.854;20.580;2023-06-22T12:01:00;98997.38;;;27.10;50.17
21760;BME280;11041;50.854;20.580;2023-06-22T12:03:28;98988.03;;;27.17;49.14
21760;BME280;11041;50.854;20.580;2023-06-22T12:05:59;98985.94;;;27.28;47.63
21760;BME280;11041;50.854;20.580;2023-06-22T12:08:26;98978.72;;;27.54;48.17
21760;BME280;11041;50.854;20.580;2023-06-22T12:10:53;98985.75;;;27.70;48.63
21760;BME280;11041;50.854;20.580;2023-06-22T12:13:21;98989.34;;;27.74;46.98
21760;BME280;11041;50.854;20.580;2023-06-22T12:15:47;98989.66;;;27.49;47.49
21760;BME280;11041;50.854;20.580;2023-06-22T12:18:14;99005.97;;;27.37;48.48
21760;BME280;11041;50.854;20.580;2023-06-22T12:20:41;98981.88;;;27.29;49.26
21760;BME280;11041;50.854;20.580;2023-06-22T12:23:17;98993.13;;;27.33;47.13
21760;BME280;11041;50.854;20.580;2023-06-22T12:25:48;99000.13;;;27.52;47.67
21760;BME280;11041;50.854;20.580;2023-06-22T12:28:15;98996.53;;;27.78;46.43
21760;BME280;11041;50.854;20.580;2023-06-22T12:30:41;98977.75;;;27.95;45.82
21760;BME280;11041;50.854;20.580;2023-06-22T12:33:08;98981.28;;;27.99;44.70
21760;BME280;11041;50.854;20.580;2023-06-22T12:35:35;98989.25;;;27.77;43.94
21760;BME280;11041;50.854;20.580;2023-06-22T12:38:01;98981.06;;;27.59;46.01
21760;BME280;11041;50.854;20.580;2023-06-22T12:40:29;98983.19;;;27.52;47.51
21760;BME280;11041;50.854;20.580;2023-06-22T12:42:56;98979.63;;;27.75;47.93
21760;BME280;11041;50.854;20.580;2023-06-22T12:45:22;98971.16;;;28.02;47.51
21760;BME280;11041;50.854;20.580;2023-06-22T12:47:49;98965.28;;;28.40;46.68
21760;BME280;11041;50.854;20.580;2023-06-22T12:50:16;98977.09;;;28.58;44.89
21760;BME280;11041;50.854;20.580;2023-06-22T12:52:42;98973.41;;;28.61;46.35